Cando, ND

5:25 PM CST on December 06, 2016 (GMT -0600)
Cando

Weather History for K9D7 - October, 2013

Change the Weather History Date:

Sunday, October 6, 2013

  Actual Average (KDVL) Record (KDVL)
Temperature  
Mean Temperature 47 °F -  
Max Temperature 66 °F 57 °F 86 °F (1961)
Min Temperature 28 °F 34 °F 19 °F (1976)
Degree Days  
Heating Degree Days 18    
Moisture  
Dew Point 32 °F    
Average Humidity 63    
Maximum Humidity 100    
Minimum Humidity 30    
Precipitation  
Precipitation 0.00 in - - ()
Sea Level Pressure  
Sea Level Pressure 29.91 in    
Wind  
Wind Speed 9 mph (NW)    
Max Wind Speed 21 mph    
Max Gust Speed 26 mph    
Visibility 10 miles    
Events      
Averages and records for this station are not official NWS values.
T = Trace of Precipitation, MM = Missing Value Source: NWS Daily Summary

Daily Weather History Graph

Daily Weather History Graph

Search for Another Location

Airport or City:

Trip Planner

Search our weather history database for the weather conditions in past years. The results will help you decide how hot, cold, wet, or windy it might be!

Date:

Astronomy

Oct. 06, 2013 Rise Set
Actual Time 7:43 AM CDT 7:05 PM CDT
Civil Twilight 7:12 AM CDT 7:36 PM CDT
Nautical Twilight 6:36 AM CDT 8:12 PM CDT
Astronomical Twilight 5:59 AM CDT 8:49 PM CDT
Moon 9:41 AM CDT 7:53 PM CDT
Length of Visible Light 12h 23m
Length of Day
11h 21m
Waxing Crescent, 3% of the Moon is Illuminated
Oct 6
Waxing Crescent
Oct 11
First Quarter
Oct 18
Full
Oct 26
Last Quarter
Nov 3
New

Hourly Weather History & Observations

Time (CDT) Temp. Windchill Dew Point Humidity Pressure Visibility Wind Dir Wind Speed Gust Speed Precip Events Conditions
12:15 AM 32.0 °F 25.6 °F 28.4 °F 87% 30.00 in 10.0 mi NNW 6.9 mph - N/A   Clear
12:35 AM 32.0 °F 28.7 °F 28.4 °F 87% 30.00 in 10.0 mi North 3.5 mph - N/A   Clear
12:55 AM 32.0 °F 28.7 °F 28.4 °F 87% 29.99 in 10.0 mi NNW 3.5 mph - N/A   Clear
1:15 AM 32.0 °F 27.5 °F 28.4 °F 87% 29.99 in 10.0 mi NNW 4.6 mph - N/A   Clear
1:35 AM 30.2 °F 23.4 °F 28.4 °F 93% 29.99 in 10.0 mi NNW 6.9 mph - N/A   Clear
1:55 AM 32.0 °F 26.4 °F 28.4 °F 87% 29.99 in 10.0 mi North 5.8 mph - N/A   Clear
2:15 AM 32.0 °F 25.6 °F 28.4 °F 87% 29.99 in 10.0 mi NW 6.9 mph - N/A   Clear
2:35 AM 32.0 °F 25.6 °F 28.4 °F 87% 29.99 in 10.0 mi NW 6.9 mph - N/A   Clear
2:55 AM 32.0 °F 27.5 °F 28.4 °F 87% 29.99 in 10.0 mi NW 4.6 mph - N/A   Clear
3:15 AM 32.0 °F 27.5 °F 28.4 °F 87% 29.99 in 10.0 mi NW 4.6 mph - N/A   Clear
3:35 AM 30.2 °F 22.6 °F 28.4 °F 93% 29.98 in 10.0 mi NW 8.1 mph - N/A   Clear
3:55 AM 30.2 °F 23.4 °F 28.4 °F 93% 29.98 in 10.0 mi NW 6.9 mph - N/A   Clear
4:15 AM 30.2 °F 21.9 °F 28.4 °F 93% 29.97 in 10.0 mi NW 9.2 mph - N/A   Clear
4:35 AM 30.2 °F 26.7 °F 26.6 °F 86% 29.97 in 10.0 mi WNW 3.5 mph - N/A   Clear
4:55 AM 28.4 °F 22.2 °F 26.6 °F 93% 29.97 in 10.0 mi WNW 5.8 mph - N/A   Clear
5:15 AM 28.4 °F 19.7 °F 28.4 °F 100% 29.96 in 10.0 mi WNW 9.2 mph - N/A   Clear
5:35 AM 30.2 °F 21.3 °F 26.6 °F 86% 29.95 in 10.0 mi WNW 10.4 mph - N/A   Clear
5:55 AM 30.2 °F 20.8 °F 28.4 °F 93% 29.95 in 10.0 mi WNW 11.5 mph - N/A   Clear
6:15 AM 32.0 °F 24.2 °F 28.4 °F 87% 29.94 in 10.0 mi NW 9.2 mph - N/A   Clear
6:35 AM 30.2 °F 21.3 °F 26.6 °F 86% 29.94 in 10.0 mi WNW 10.4 mph - N/A   Clear
6:55 AM 32.0 °F 24.8 °F 28.4 °F 87% 29.94 in 10.0 mi WNW 8.1 mph - N/A   Clear
7:15 AM 32.0 °F 24.8 °F 28.4 °F 87% 29.94 in 10.0 mi NW 8.1 mph - N/A   Clear
7:35 AM 32.0 °F 24.8 °F 28.4 °F 87% 29.94 in 10.0 mi WNW 8.1 mph - N/A   Clear
7:55 AM 32.0 °F 23.6 °F 28.4 °F 87% 29.94 in 10.0 mi WNW 10.4 mph - N/A   Clear
8:15 AM 32.0 °F 23.0 °F 28.4 °F 87% 29.93 in 10.0 mi WNW 11.5 mph - N/A   Clear
8:35 AM 35.6 °F 28.0 °F 28.4 °F 75% 29.93 in 10.0 mi WNW 10.4 mph - N/A   Clear
8:55 AM 37.4 °F 29.8 °F 30.2 °F 75% 29.93 in 10.0 mi WNW 11.5 mph - N/A   Clear
9:15 AM 41.0 °F 33.5 °F 32.0 °F 70% 29.93 in 10.0 mi WNW 13.8 mph - N/A   Clear
9:35 AM 42.8 °F 37.0 °F 32.0 °F 66% 29.93 in 10.0 mi WNW 10.4 mph - N/A   Clear
9:55 AM 44.6 °F 37.8 °F 32.0 °F 61% 29.93 in 10.0 mi WNW 15.0 mph - N/A   Clear
10:15 AM 48.2 °F - 32.0 °F 54% 29.93 in 10.0 mi NW 13.8 mph 18.4 mph N/A   Clear
10:35 AM 50.0 °F - 32.0 °F 50% 29.93 in 10.0 mi WNW 13.8 mph 18.4 mph N/A   Clear
10:55 AM 51.8 °F - 32.0 °F 47% 29.92 in 10.0 mi WNW 15.0 mph - N/A   Clear
11:15 AM 53.6 °F - 32.0 °F 44% 29.92 in 10.0 mi WNW 12.7 mph 17.3 mph N/A   Clear
11:35 AM 55.4 °F - 32.0 °F 41% 29.92 in 10.0 mi WNW 12.7 mph - N/A   Clear
11:55 AM 57.2 °F - 32.0 °F 38% 29.92 in 10.0 mi NW 16.1 mph - N/A   Clear
12:15 PM 59.0 °F - 32.0 °F 36% 29.91 in 10.0 mi WNW 13.8 mph - N/A   Clear
12:35 PM 60.8 °F - 32.0 °F 34% 29.91 in 10.0 mi WNW 18.4 mph - N/A   Clear
12:55 PM 62.6 °F - 32.0 °F 32% 29.91 in 10.0 mi WNW 17.3 mph - N/A   Clear
1:15 PM 62.6 °F - 32.0 °F 32% 29.90 in 10.0 mi West 15.0 mph - N/A   Clear
1:35 PM 64.4 °F - 32.0 °F 30% 29.89 in 10.0 mi West 13.8 mph - N/A   Clear
1:55 PM 64.4 °F - 32.0 °F 30% 29.88 in 10.0 mi West 13.8 mph - N/A   Clear
2:15 PM 64.4 °F - 32.0 °F 30% 29.87 in 10.0 mi WNW 12.7 mph 24.2 mph N/A   Clear
2:35 PM 64.4 °F - 32.0 °F 30% 29.87 in 10.0 mi WNW 17.3 mph 21.9 mph N/A   Clear
2:55 PM 64.4 °F - 32.0 °F 30% 29.87 in 10.0 mi WNW 13.8 mph - N/A   Clear
3:15 PM 66.2 °F - 33.8 °F 30% 29.87 in 10.0 mi NW 16.1 mph 21.9 mph N/A   Clear
3:35 PM 66.2 °F - 33.8 °F 30% 29.86 in 10.0 mi WNW 15.0 mph 25.3 mph N/A   Clear
3:55 PM 66.2 °F - 35.6 °F 32% 29.85 in 10.0 mi WNW 20.7 mph 26.5 mph N/A   Clear
4:15 PM 66.2 °F - 35.6 °F 32% 29.85 in 10.0 mi WNW 16.1 mph 23.0 mph N/A   Clear
4:35 PM 66.2 °F - 35.6 °F 32% 29.85 in 10.0 mi WNW 17.3 mph 25.3 mph N/A   Clear
4:55 PM 66.2 °F - 35.6 °F 32% 29.84 in 10.0 mi WNW 18.4 mph 24.2 mph N/A   Clear
5:15 PM 66.2 °F - 35.6 °F 32% 29.85 in 10.0 mi NW 16.1 mph 25.3 mph N/A   Clear
5:35 PM 66.2 °F - 35.6 °F 32% 29.85 in 10.0 mi WNW 16.1 mph 24.2 mph N/A   Clear
5:55 PM 64.4 °F - 35.6 °F 34% 29.85 in 10.0 mi NW 15.0 mph 23.0 mph N/A   Clear
6:15 PM 64.4 °F - 35.6 °F 34% 29.85 in 10.0 mi NW 11.5 mph - N/A   Clear
6:35 PM 62.6 °F - 37.4 °F 39% 29.84 in 10.0 mi NW 6.9 mph - N/A   Mostly Cloudy
6:55 PM 57.2 °F - 37.4 °F 48% 29.84 in 10.0 mi WNW 6.9 mph - N/A   Mostly Cloudy
7:15 PM 55.4 °F - 37.4 °F 51% 29.84 in 10.0 mi WNW 6.9 mph - N/A   Partly Cloudy
7:35 PM 53.6 °F - 35.6 °F 51% 29.85 in 10.0 mi WNW 6.9 mph - N/A   Clear
7:55 PM 50.0 °F - 37.4 °F 62% 29.85 in 10.0 mi WNW 10.4 mph - N/A   Clear
8:15 PM 53.6 °F - 37.4 °F 54% 29.85 in 10.0 mi NW 10.4 mph - N/A   Clear
8:35 PM 53.6 °F - 37.4 °F 54% 29.86 in 10.0 mi NW 9.2 mph - N/A   Clear
8:55 PM 48.2 °F - 37.4 °F 66% 29.87 in 10.0 mi NNW 8.1 mph - N/A   Clear
9:15 PM 46.4 °F 42.4 °F 37.4 °F 71% 29.87 in 10.0 mi NNW 8.1 mph - N/A   Clear
9:35 PM 48.2 °F - 37.4 °F 66% 29.88 in 10.0 mi NW 6.9 mph - N/A   Clear
9:55 PM 48.2 °F - 37.4 °F 66% 29.88 in 10.0 mi NW 8.1 mph - N/A   Clear
10:15 PM 46.4 °F 42.9 °F 37.4 °F 71% 29.89 in 10.0 mi NW 6.9 mph - N/A   Clear
10:35 PM 46.4 °F 42.4 °F 37.4 °F 71% 29.89 in 10.0 mi NNW 8.1 mph - N/A   Clear
10:55 PM 44.6 °F 39.7 °F 37.4 °F 76% 29.89 in 10.0 mi NNW 9.2 mph - N/A   Clear
11:15 PM 44.6 °F 39.7 °F 37.4 °F 76% 29.89 in 10.0 mi NNW 9.2 mph - N/A   Clear
11:35 PM 46.4 °F 41.9 °F 35.6 °F 66% 29.90 in 10.0 mi NW 9.2 mph - N/A   Clear
11:55 PM 44.6 °F 40.2 °F 35.6 °F 71% 29.90 in 10.0 mi NNW 8.1 mph - N/A   Clear